Time;durP1;ratioP1;P1;durP2;ratioP2;P2;SDS_P1;SDS_P2;PMS_P1;PMS_P2;Temp;Humidity;BMP_temperature;BMP_pressure;BME280_temperature;BME280_humidity;BME280_pressure;Samples;Min_cycle;Max_cycle;Signal;HPM_P1;HPM_P2
2022/03/21 00:02:43;;;;;;;33.20;14.43;;;;;;;1.63;40.00;101603.97;8461187;28;20061;-74
2022/03/21 00:06:44;;;;;;;41.13;15.93;;;;;;;1.63;39.61;101603.97;8461448;28;20501;-74
2022/03/21 00:10:45;;;;;;;45.97;15.07;;;;;;;1.65;39.52;101601.91;8460255;28;20055;-73
2022/03/21 00:14:46;;;;;;;40.60;16.27;;;;;;;1.65;39.73;101607.25;8461113;28;20051;-74
2022/03/21 00:18:47;;;;;;;43.22;16.20;;;;;;;1.63;39.63;101593.31;8461013;28;20055;-74
2022/03/21 00:22:50;;;;;;;37.83;15.75;;;;;;;1.57;39.91;101599.38;8459883;28;20537;-73
2022/03/21 00:26:51;;;;;;;36.50;16.20;;;;;;;1.51;39.84;101605.47;8460409;28;20047;-74
2022/03/21 00:30:53;;;;;;;42.55;16.25;;;;;;;1.43;39.99;101592.28;8460854;28;20457;-74
2022/03/21 00:34:54;;;;;;;42.03;16.73;;;;;;;1.50;40.17;101598.47;8435739;28;20048;-74
2022/03/21 00:38:56;;;;;;;43.08;16.80;;;;;;;1.44;40.54;101600.06;8460210;28;20043;-74
2022/03/21 00:42:58;;;;;;;43.72;17.05;;;;;;;1.48;40.61;101603.19;8460120;28;20067;-74
2022/03/21 00:46:59;;;;;;;44.15;18.35;;;;;;;1.40;40.44;101589.97;8458307;28;20124;-74
2022/03/21 00:51:00;;;;;;;50.75;18.45;;;;;;;1.36;40.79;101591.38;8459734;28;20047;-73
2022/03/21 00:55:01;;;;;;;43.47;17.50;;;;;;;1.30;41.04;101581.47;8460060;28;20051;-74
2022/03/21 00:59:03;;;;;;;47.53;18.02;;;;;;;1.23;41.10;101582.22;8458481;28;20105;-73
2022/03/21 01:03:05;;;;;;;46.28;18.27;;;;;;;1.16;41.45;101586.63;8459436;28;20036;-74
2022/03/21 01:07:05;;;;;;;54.78;19.48;;;;;;;1.19;41.55;101580.94;8459488;28;20441;-73
2022/03/21 01:11:06;;;;;;;56.55;18.58;;;;;;;1.19;41.68;101575.63;8459917;28;20088;-74
2022/03/21 01:15:08;;;;;;;46.38;18.50;;;;;;;1.20;41.60;101577.28;8459783;28;20458;-73
2022/03/21 01:19:09;;;;;;;47.28;19.55;;;;;;;1.28;41.80;101587.81;8459554;28;20508;-74
2022/03/21 01:23:10;;;;;;;53.10;20.20;;;;;;;1.35;41.72;101573.75;8459406;28;20067;-74
2022/03/21 01:27:11;;;;;;;45.85;18.25;;;;;;;1.36;41.76;101575.41;8459260;28;20055;-74
2022/03/21 01:31:11;;;;;;;53.13;18.95;;;;;;;1.33;41.66;101575.75;8441503;28;20056;-74
2022/03/21 01:35:16;;;;;;;51.53;20.27;;;;;;;1.25;41.77;101564.22;8465285;28;20047;-74
2022/03/21 01:39:17;;;;;;;50.45;18.88;;;;;;;1.30;41.87;101565.50;8464356;28;20043;-74
2022/03/21 01:43:18;;;;;;;58.92;21.58;;;;;;;1.34;41.90;101561.44;8429858;28;20047;-74
2022/03/21 01:47:19;;;;;;;57.60;20.25;;;;;;;1.25;42.22;101558.91;8446821;28;20086;-74
2022/03/21 01:51:21;;;;;;;56.13;20.67;;;;;;;1.21;41.98;101557.63;8446436;28;20058;-74
2022/03/21 01:59:41;;;;;;;58.17;20.15;;;;;;;1.27;42.37;101556.03;8465937;28;20047;-74
2022/03/21 02:03:42;;;;;;;53.80;20.50;;;;;;;1.23;42.18;101558.25;8465300;28;20424;-74
2022/03/21 02:07:44;;;;;;;48.70;19.63;;;;;;;1.18;42.34;101550.00;8465129;28;20447;-74
2022/03/21 02:11:45;;;;;;;57.75;21.73;;;;;;;1.11;42.17;101557.09;8428423;28;20043;-73
2022/03/21 02:15:46;;;;;;;53.00;20.13;;;;;;;1.03;42.45;101543.91;8442937;28;20055;-73
2022/03/21 02:19:47;;;;;;;55.60;21.75;;;;;;;1.04;43.07;101545.56;8464652;28;20052;-74
2022/03/21 02:23:57;;;;;;;59.88;22.83;;;;;;;0.92;42.70;101541.72;8455100;28;20511;-74
2022/03/21 02:28:03;;;;;;;59.15;22.55;;;;;;;0.90;43.10;101543.72;8445348;28;20043;-74
2022/03/21 02:32:06;;;;;;;55.78;21.83;;;;;;;0.83;43.14;101537.53;8463197;28;20508;-74
2022/03/21 02:36:08;;;;;;;50.92;21.25;;;;;;;0.77;43.72;101543.59;8464481;27;20414;-74
2022/03/21 02:40:09;;;;;;;56.65;21.50;;;;;;;0.77;43.27;101538.25;8464595;28;20119;-74
2022/03/21 02:44:10;;;;;;;61.42;22.83;;;;;;;0.71;43.41;101539.00;8455956;28;20048;-74
2022/03/21 02:48:13;;;;;;;64.95;22.55;;;;;;;0.68;43.90;101547.34;8464262;28;20039;-74
2022/03/21 02:52:15;;;;;;;55.05;21.75;;;;;;;0.61;43.79;101549.09;8462538;28;20402;-74
2022/03/21 02:56:17;;;;;;;62.75;24.13;;;;;;;0.54;44.20;101542.84;8410864;28;20040;-74
2022/03/21 03:00:18;;;;;;;62.10;23.95;;;;;;;0.47;44.33;101541.97;8443876;28;20130;-74
2022/03/21 03:04:26;;;;;;;59.97;22.90;;;;;;;0.45;44.76;101538.66;8463080;28;20100;-74
2022/03/21 03:08:27;;;;;;;61.55;23.88;;;;;;;0.35;44.91;101550.38;8463584;28;20040;-74
2022/03/21 03:12:28;;;;;;;68.00;23.50;;;;;;;0.36;44.79;101541.41;8463679;28;20493;-74
2022/03/21 03:16:29;;;;;;;64.88;24.70;;;;;;;0.29;45.42;101543.13;8462337;28;20142;-74
2022/03/21 03:20:30;;;;;;;65.22;23.67;;;;;;;0.24;45.52;101542.03;8462006;28;20039;-74
2022/03/21 03:24:31;;;;;;;57.83;23.45;;;;;;;0.21;45.67;101548.53;8463400;27;20056;-74
2022/03/21 03:28:32;;;;;;;71.15;24.63;;;;;;;0.15;45.81;101543.97;8426578;28;20055;-74
2022/03/21 03:32:33;;;;;;;71.68;24.55;;;;;;;0.11;46.12;101553.28;8435187;28;20109;-73
2022/03/21 03:36:35;;;;;;;64.18;22.95;;;;;;;0.07;45.93;101545.84;8426170;28;20549;-74
2022/03/21 03:40:35;;;;;;;62.65;24.60;;;;;;;0.00;45.86;101551.88;8462626;28;20050;-73
2022/03/21 03:44:36;;;;;;;63.42;25.17;;;;;;;-0.07;46.35;101560.75;8461883;28;20129;-74
2022/03/21 03:48:38;;;;;;;63.15;23.17;;;;;;;-0.08;46.42;101553.78;8442503;28;20135;-73
2022/03/21 03:52:40;;;;;;;64.78;24.25;;;;;;;-0.15;46.75;101552.84;8462107;28;20043;-73
2022/03/21 03:56:41;;;;;;;67.85;24.67;;;;;;;-0.23;47.04;101550.28;8389625;28;20446;-74
2022/03/21 04:00:44;;;;;;;63.38;24.23;;;;;;;-0.28;47.09;101557.97;8389883;28;20075;-73
2022/03/21 04:04:45;;;;;;;70.47;24.73;;;;;;;-0.35;47.34;101551.69;8356306;28;20064;-74
2022/03/21 04:08:48;;;;;;;67.05;25.42;;;;;;;-0.37;47.48;101559.03;8365933;28;20049;-74
2022/03/21 04:12:49;;;;;;;64.85;24.30;;;;;;;-0.38;47.50;101562.69;8389833;28;20070;-73
2022/03/21 04:16:50;;;;;;;70.60;23.42;;;;;;;-0.40;47.30;101559.38;8388127;28;20486;-74
2022/03/21 04:20:54;;;;;;;63.53;24.17;;;;;;;-0.44;48.11;101554.44;8389463;28;20064;-74
2022/03/21 04:24:55;;;;;;;60.35;25.05;;;;;;;-0.47;47.94;101565.38;8390047;28;20553;-74
2022/03/21 04:28:56;;;;;;;67.55;24.67;;;;;;;-0.51;48.22;101569.41;8422019;28;20052;-74
2022/03/21 04:32:58;;;;;;;66.65;25.38;;;;;;;-0.55;48.64;101562.78;8460733;28;20051;-74
2022/03/21 04:36:58;;;;;;;72.97;25.75;;;;;;;-0.56;48.76;101566.44;8459972;28;20055;-74
2022/03/21 04:41:00;;;;;;;67.57;25.33;;;;;;;-0.62;48.69;101561.84;8460509;28;20538;-74
2022/03/21 04:45:01;;;;;;;73.70;25.88;;;;;;;-0.63;49.14;101562.84;8460520;28;20048;-74
2022/03/21 04:49:02;;;;;;;68.63;24.48;;;;;;;-0.67;48.80;101569.50;8460525;28;20040;-74
2022/03/21 04:53:03;;;;;;;74.63;26.33;;;;;;;-0.69;48.82;101571.53;8460627;28;20143;-73
2022/03/21 04:57:06;;;;;;;62.90;24.42;;;;;;;-0.70;49.02;101569.88;8458175;28;20044;-74
2022/03/21 05:01:07;;;;;;;72.03;26.25;;;;;;;-0.68;49.16;101567.00;8459811;28;20134;-74
2022/03/21 05:05:09;;;;;;;78.00;26.63;;;;;;;-0.68;49.08;101573.16;8458152;28;20052;-75
2022/03/21 05:09:10;;;;;;;79.57;27.45;;;;;;;-0.69;49.44;101571.53;8448412;28;20160;-74
2022/03/21 05:13:11;;;;;;;75.68;27.77;;;;;;;-0.60;49.58;101586.38;8459698;28;20047;-73
2022/03/21 05:17:12;;;;;;;73.68;26.77;;;;;;;-0.58;49.54;101584.38;8460144;28;20108;-74
2022/03/21 05:21:13;;;;;;;70.55;26.10;;;;;;;-0.53;49.74;101592.63;8439986;28;20149;-74
2022/03/21 05:38:13;;;;;;;73.30;26.35;;;;;;;-0.44;50.14;101591.59;8401388;28;20043;-75
2022/03/21 05:42:14;;;;;;;76.05;25.80;;;;;;;-0.39;49.98;101592.88;8429945;28;20127;-75
2022/03/21 05:46:15;;;;;;;75.47;26.05;;;;;;;-0.33;50.04;101592.19;8411323;28;20120;-74
2022/03/21 05:50:16;;;;;;;77.30;29.73;;;;;;;-0.29;49.87;101598.78;8434374;28;20090;-74
2022/03/21 05:54:17;;;;;;;71.25;27.08;;;;;;;-0.22;49.93;101597.09;8430088;28;20048;-76
2022/03/21 05:58:18;;;;;;;75.32;28.02;;;;;;;-0.11;50.13;101596.66;8426184;28;20075;-75
2022/03/21 06:02:19;;;;;;;73.90;27.50;;;;;;;0.03;49.89;101603.84;8429814;28;20456;-75
2022/03/21 06:06:21;;;;;;;80.03;29.30;;;;;;;0.09;49.57;101608.44;8426603;28;20044;-75
2022/03/21 06:10:22;;;;;;;80.25;28.50;;;;;;;0.16;49.49;101598.72;8431156;28;20047;-75
2022/03/21 06:14:23;;;;;;;78.15;27.55;;;;;;;0.24;49.36;101606.63;8423968;28;20181;-75
2022/03/21 06:18:24;;;;;;;73.55;26.20;;;;;;;0.32;49.73;101609.22;8425545;28;20043;-75
2022/03/21 06:22:25;;;;;;;74.97;27.98;;;;;;;0.37;49.00;101611.34;8436731;28;20032;-75
2022/03/21 06:26:26;;;;;;;74.22;28.48;;;;;;;0.47;48.58;101616.41;8441367;28;20070;-75
2022/03/21 06:30:28;;;;;;;69.10;26.20;;;;;;;0.55;48.80;101618.97;8429922;28;20489;-75
2022/03/21 06:34:29;;;;;;;76.28;27.00;;;;;;;0.63;48.38;101605.59;8432218;28;20059;-74
2022/03/21 06:38:30;;;;;;;69.28;26.52;;;;;;;0.76;48.40;101619.06;8432161;28;20040;-74
2022/03/21 06:42:31;;;;;;;73.60;26.88;;;;;;;0.84;47.99;101624.31;8435051;28;20040;-74
2022/03/21 06:46:32;;;;;;;70.15;25.95;;;;;;;0.94;48.40;101630.16;8437945;28;20504;-74
2022/03/21 06:50:33;;;;;;;68.32;26.75;;;;;;;1.04;48.14;101630.72;8426319;28;20132;-74
2022/03/21 06:54:36;;;;;;;65.65;26.98;;;;;;;1.19;47.80;101623.53;8432036;28;20367;-73
2022/03/21 06:58:37;;;;;;;71.18;27.25;;;;;;;1.36;47.67;101623.31;8418388;28;20537;-74
2022/03/21 07:02:38;;;;;;;72.57;26.52;;;;;;;1.49;47.62;101634.09;8439654;28;20097;-75
2022/03/21 07:06:39;;;;;;;61.25;25.95;;;;;;;1.66;47.21;101640.84;8442564;28;20464;-74
2022/03/21 07:10:40;;;;;;;59.72;23.70;;;;;;;1.79;46.60;101649.00;8433794;28;20043;-75
2022/03/21 07:14:41;;;;;;;66.28;25.42;;;;;;;1.96;46.61;101642.38;8434085;28;20055;-74
2022/03/21 07:18:43;;;;;;;62.50;23.83;;;;;;;2.15;46.57;101650.78;8436529;28;20486;-75
2022/03/21 07:22:44;;;;;;;60.08;24.20;;;;;;;2.30;46.60;101643.50;8431127;28;20409;-74
2022/03/21 07:26:48;;;;;;;58.63;23.92;;;;;;;2.45;46.42;101641.59;8461913;28;20046;-74
2022/03/21 07:30:49;;;;;;;63.30;23.67;;;;;;;2.67;45.55;101651.19;8425100;28;20044;-75
2022/03/21 07:34:50;;;;;;;56.22;23.58;;;;;;;2.77;45.78;101657.00;8461478;28;20154;-74
2022/03/21 07:38:51;;;;;;;69.72;23.65;;;;;;;3.00;45.23;101658.56;8441750;28;20250;-75
2022/03/21 07:42:52;;;;;;;60.80;23.90;;;;;;;3.16;45.26;101650.25;8461065;28;20043;-75
2022/03/21 07:51:12;;;;;;;51.95;22.08;;;;;;;3.54;44.65;101659.44;8462119;28;20536;-74
2022/03/21 07:55:13;;;;;;;58.42;22.70;;;;;;;3.77;43.95;101653.75;8462351;28;20044;-74
2022/03/21 07:59:15;;;;;;;55.90;22.25;;;;;;;3.98;43.53;101655.41;8442647;28;20135;-73
2022/03/21 08:03:17;;;;;;;55.05;22.58;;;;;;;4.13;43.25;101658.72;8461796;28;20059;-73
2022/03/21 08:07:18;;;;;;;53.72;21.50;;;;;;;4.31;43.22;101661.63;8425572;28;20418;-72
2022/03/21 08:11:19;;;;;;;50.45;20.52;;;;;;;4.61;41.94;101652.16;8461657;28;20667;-73
2022/03/21 08:15:20;;;;;;;57.47;22.00;;;;;;;4.68;41.66;101652.97;8461904;28;20039;-73
2022/03/21 08:19:24;;;;;;;64.13;25.35;;;;;;;4.85;41.43;101649.88;8461646;28;20071;-73
2022/03/21 08:23:24;;;;;;;46.28;20.90;;;;;;;5.07;41.31;101667.31;8461103;28;20048;-73
2022/03/21 08:27:28;;;;;;;45.30;18.92;;;;;;;5.21;40.93;101652.84;8401266;28;20048;-73
2022/03/21 08:31:29;;;;;;;50.63;19.70;;;;;;;5.32;40.91;101654.88;8389798;28;20090;-72
2022/03/21 08:35:30;;;;;;;45.60;20.25;;;;;;;5.43;40.88;101656.88;8374333;28;20044;-73
2022/03/21 08:39:31;;;;;;;55.63;22.38;;;;;;;5.70;40.96;101654.06;8389857;28;20421;-72
2022/03/21 08:43:33;;;;;;;55.67;21.52;;;;;;;5.96;40.45;101651.28;8388683;28;20157;-73
2022/03/21 08:47:34;;;;;;;50.60;18.70;;;;;;;6.13;39.26;101652.41;8389259;28;20123;-73
2022/03/21 08:51:37;;;;;;;44.22;18.45;;;;;;;6.31;39.02;101649.75;8389311;28;20060;-73
2022/03/21 08:55:38;;;;;;;42.05;17.95;;;;;;;6.57;38.53;101645.19;8389303;28;20511;-72
2022/03/21 08:59:39;;;;;;;39.42;17.60;;;;;;;6.78;37.03;101645.63;8388813;28;20187;-73
2022/03/21 09:03:40;;;;;;;35.15;17.45;;;;;;;6.88;36.26;101645.09;8404007;28;20093;-72
2022/03/21 09:07:42;;;;;;;36.95;17.95;;;;;;;7.00;36.39;101648.69;8426477;28;20047;-72
2022/03/21 09:11:44;;;;;;;40.40;16.60;;;;;;;7.09;36.54;101628.53;8426526;28;20039;-73
2022/03/21 09:15:45;;;;;;;38.67;17.38;;;;;;;7.22;36.91;101636.47;8407133;28;20036;-74
2022/03/21 09:19:46;;;;;;;43.53;16.33;;;;;;;7.37;35.92;101632.56;8426179;28;20094;-73
2022/03/21 09:23:47;;;;;;;42.78;16.75;;;;;;;7.62;35.28;101630.56;8426315;28;20051;-72
2022/03/21 09:27:47;;;;;;;38.72;15.75;;;;;;;7.80;34.33;101627.84;8451376;28;20142;-73
2022/03/21 09:31:50;;;;;;;36.95;16.13;;;;;;;7.96;34.68;101631.75;8460015;28;20502;-73
2022/03/21 09:35:51;;;;;;;33.00;16.00;;;;;;;8.17;34.20;101627.69;8459903;28;20048;-73
2022/03/21 09:39:52;;;;;;;34.35;15.80;;;;;;;8.28;34.41;101625.03;8459938;28;20504;-74
2022/03/21 09:43:55;;;;;;;39.20;17.70;;;;;;;8.46;34.81;101632.19;8459994;28;20050;-74
2022/03/21 09:48:09;;;;;;;33.08;15.70;;;;;;;8.60;34.28;101622.84;8459603;28;20043;-74
2022/03/21 09:52:10;;;;;;;36.63;16.17;;;;;;;8.70;33.06;101616.88;8459913;28;20568;-74
2022/03/21 09:56:11;;;;;;;37.28;15.13;;;;;;;8.73;32.76;101617.22;8464882;28;20072;-75
2022/03/21 10:00:12;;;;;;;31.65;13.55;;;;;;;8.91;32.46;101608.19;8465889;28;20047;-73
2022/03/21 10:04:13;;;;;;;34.58;14.23;;;;;;;9.12;31.91;101604.84;8446374;28;20048;-75
2022/03/21 10:08:27;;;;;;;30.05;14.05;;;;;;;9.33;32.03;101600.69;8465740;28;20538;-73
2022/03/21 10:12:28;;;;;;;27.77;13.02;;;;;;;9.53;30.94;101606.47;8465628;28;20051;-74
2022/03/21 10:16:29;;;;;;;28.23;13.05;;;;;;;9.59;30.12;101605.50;8465484;28;20131;-74
2022/03/21 10:20:34;;;;;;;28.42;13.20;;;;;;;9.65;30.29;101604.53;8465020;28;20036;-74
2022/03/21 10:24:43;;;;;;;30.15;14.63;;;;;;;9.73;30.81;101590.66;8465306;28;20062;-75
2022/03/21 10:28:44;;;;;;;37.75;15.88;;;;;;;9.88;30.83;101597.41;8465190;28;20043;-75
2022/03/21 10:32:50;;;;;;;33.72;16.13;;;;;;;10.10;30.39;101590.19;8465404;28;20054;-75
2022/03/21 10:37:00;;;;;;;27.35;13.40;;;;;;;10.26;30.31;101588.63;8464759;28;20044;-75
2022/03/21 10:41:09;;;;;;;27.13;13.27;;;;;;;10.30;30.09;101587.88;8464464;28;20076;-74
2022/03/21 10:45:10;;;;;;;28.23;12.32;;;;;;;10.48;29.60;101575.97;8466032;28;20071;-74
2022/03/21 10:49:11;;;;;;;26.30;12.15;;;;;;;10.68;29.15;101570.84;8465020;28;20040;-74
2022/03/21 10:53:20;;;;;;;28.05;13.32;;;;;;;10.69;28.83;101558.16;8464843;27;20107;-75
2022/03/21 10:57:33;;;;;;;27.15;12.90;;;;;;;10.86;28.78;101561.63;8464276;28;20394;-75
2022/03/21 11:01:36;;;;;;;28.85;12.20;;;;;;;10.97;29.33;101563.41;8463552;28;20104;-74
2022/03/21 11:05:41;;;;;;;35.75;14.45;;;;;;;11.05;27.74;101559.44;8463455;28;20051;-75
2022/03/21 11:09:42;;;;;;;26.33;11.23;;;;;;;11.21;28.28;101553.94;8464066;28;20413;-74
2022/03/21 11:13:45;;;;;;;22.70;11.57;;;;;;;11.28;28.37;101559.97;8463783;28;20097;-75
2022/03/21 11:17:47;;;;;;;24.35;12.52;;;;;;;11.36;27.46;101556.00;8463326;28;20047;-74
2022/03/21 11:21:49;;;;;;;22.58;11.00;;;;;;;11.39;27.19;101556.31;8445541;28;20043;-74
2022/03/21 11:25:54;;;;;;;24.80;12.20;;;;;;;11.52;27.65;101554.28;8463535;28;20075;-74
2022/03/21 11:30:13;;;;;;;21.70;11.05;;;;;;;11.70;27.70;101543.06;8463511;28;20123;-73
2022/03/21 11:34:43;;;;;;;27.77;12.90;;;;;;;11.78;27.58;101548.06;8462932;28;20039;-74
2022/03/21 11:38:45;;;;;;;;;;;;;;;11.91;27.37;101542.22;8462299;28;20047;-74
2022/03/21 11:42:46;;;;;;;26.92;12.88;;;;;;;11.96;27.13;101539.53;8462876;28;20017;-75
2022/03/21 11:46:47;;;;;;;25.02;13.18;;;;;;;11.89;27.05;101528.13;8426464;28;20054;-74
2022/03/21 11:51:18;;;;;;;26.45;12.98;;;;;;;12.01;26.92;101523.31;8462398;28;20123;-74
2022/03/21 11:55:28;;;;;;;24.08;11.80;;;;;;;12.16;27.19;101520.72;8357712;28;20049;-76
2022/03/21 11:59:32;;;;;;;25.35;12.60;;;;;;;12.35;26.56;101520.31;8357410;28;20053;-75
2022/03/21 12:03:33;;;;;;;30.13;13.07;;;;;;;12.45;25.58;101510.34;8357535;28;20045;-76
2022/03/21 12:07:35;;;;;;;21.95;11.88;;;;;;;12.48;25.36;101503.56;8357742;28;20069;-76
2022/03/21 12:11:37;;;;;;;22.10;11.30;;;;;;;12.52;25.52;101493.88;8357575;28;20056;-76
2022/03/21 12:15:49;;;;;;;26.40;12.45;;;;;;;12.73;25.38;101500.19;8357162;28;20061;-75
2022/03/21 12:19:51;;;;;;;24.88;12.20;;;;;;;12.79;25.48;101494.53;8323234;28;20128;-75
2022/03/21 12:24:18;;;;;;;24.50;12.35;;;;;;;12.85;25.44;101482.59;8356975;28;20195;-76
2022/03/21 12:28:19;;;;;;;27.77;12.30;;;;;;;12.95;25.77;101481.84;8356855;28;20598;-76
2022/03/21 12:32:27;;;;;;;32.85;12.63;;;;;;;13.14;25.01;101471.31;8407041;28;20057;-72
2022/03/21 12:36:32;;;;;;;33.28;12.77;;;;;;;13.17;24.65;101473.50;8426038;28;20048;-73
2022/03/21 12:40:35;;;;;;;26.65;12.95;;;;;;;12.98;24.93;101455.00;8427215;28;20100;-73
2022/03/21 12:44:40;;;;;;;33.42;16.65;;;;;;;13.18;24.92;101465.09;8407964;28;20085;-73
2022/03/21 12:48:44;;;;;;;28.35;11.60;;;;;;;13.31;23.67;101458.34;8427441;28;20052;-73
2022/03/21 12:52:52;;;;;;;22.50;11.82;;;;;;;13.29;23.35;101455.06;8426309;28;20058;-73
2022/03/21 12:57:06;;;;;;;32.40;13.95;;;;;;;13.33;24.09;101450.72;8426920;28;20048;-73
2022/03/21 13:01:07;;;;;;;26.50;12.52;;;;;;;13.35;24.40;101448.56;8426538;28;20052;-73
2022/03/21 13:13:59;;;;;;;22.52;12.57;;;;;;;13.54;23.89;101446.94;8426794;28;20063;-73
2022/03/21 13:18:03;;;;;;;29.60;12.90;;;;;;;13.59;23.52;101438.00;8426948;28;20047;-73
2022/03/21 13:22:07;;;;;;;28.90;14.00;;;;;;;13.52;23.25;101432.84;8426419;28;20044;-73
2022/03/21 13:26:28;;;;;;;31.50;13.88;;;;;;;14.19;23.23;101426.22;8436067;28;20055;-72
2022/03/21 13:30:29;;;;;;;26.65;12.73;;;;;;;14.96;22.10;101424.81;8465829;28;20051;-73
2022/03/21 13:34:30;;;;;;;26.58;13.68;;;;;;;16.01;21.46;101419.59;8466723;28;20047;-73
2022/03/21 13:38:34;;;;;;;24.65;12.50;;;;;;;17.43;20.67;101412.25;8466635;28;20073;-73
2022/03/21 13:42:36;;;;;;;21.38;11.57;;;;;;;18.36;18.90;101413.81;8465366;28;20070;-73
2022/03/21 13:46:37;;;;;;;25.90;13.43;;;;;;;18.31;19.08;101411.19;8466639;28;20047;-73
2022/03/21 13:50:41;;;;;;;23.58;11.63;;;;;;;19.29;18.18;101404.09;8466284;27;20085;-74
2022/03/21 13:54:53;;;;;;;20.67;11.38;;;;;;;20.67;17.32;101406.38;8466064;28;20043;-72
2022/03/21 13:59:15;;;;;;;22.45;13.23;;;;;;;20.74;16.60;101399.59;8403666;28;20076;-74
2022/03/21 14:03:38;;;;;;;20.60;11.95;;;;;;;20.39;16.86;101405.03;8442621;28;20047;-75
2022/03/21 14:07:39;;;;;;;28.13;15.10;;;;;;;20.77;16.98;101390.75;8461825;28;20052;-74
2022/03/21 14:11:40;;;;;;;25.75;13.38;;;;;;;21.45;16.97;101388.00;8461807;28;20154;-75
2022/03/21 14:15:46;;;;;;;20.30;12.10;;;;;;;21.63;15.95;101385.19;8464103;28;20497;-71
2022/03/21 14:19:47;;;;;;;22.45;12.38;;;;;;;21.23;16.59;101382.69;8459207;28;20055;-74
2022/03/21 14:23:49;;;;;;;20.85;12.27;;;;;;;21.69;15.87;101386.63;8427133;28;20044;-74
2022/03/21 14:27:50;;;;;;;24.33;12.55;;;;;;;21.40;15.88;101379.91;8464081;27;20108;-74
2022/03/21 14:31:52;;;;;;;19.17;11.88;;;;;;;20.52;16.38;101382.13;8463954;27;20044;-74
2022/03/21 14:35:53;;;;;;;21.63;14.02;;;;;;;20.19;16.63;101383.66;8463700;28;20163;-74
2022/03/21 14:39:54;;;;;;;20.17;11.93;;;;;;;20.89;16.78;101363.44;8457839;28;20055;-74
2022/03/21 14:43:55;;;;;;;22.58;12.57;;;;;;;21.10;16.26;101366.34;8463116;28;20039;-74
2022/03/21 14:47:56;;;;;;;24.48;13.00;;;;;;;21.33;16.59;101363.09;8452535;27;20112;-73
2022/03/21 14:51:57;;;;;;;24.83;11.80;;;;;;;22.82;16.01;101355.47;8457717;28;20043;-76
2022/03/21 14:56:01;;;;;;;24.33;12.25;;;;;;;23.75;15.28;101352.09;8459993;28;20111;-74
2022/03/21 15:00:04;;;;;;;21.27;12.10;;;;;;;24.24;14.13;101352.16;8462497;28;20051;-73
2022/03/21 15:04:05;;;;;;;23.48;12.70;;;;;;;24.24;14.67;101346.63;8463537;28;20473;-73
2022/03/21 15:08:06;;;;;;;20.17;12.07;;;;;;;24.54;14.42;101350.72;8462179;28;20040;-73
2022/03/21 15:12:07;;;;;;;17.50;11.90;;;;;;;24.72;14.04;101345.75;8446703;28;20051;-77
2022/03/21 15:16:08;;;;;;;19.95;11.93;;;;;;;23.26;15.50;101350.38;8442335;28;20130;-74
2022/03/21 15:20:12;;;;;;;20.48;12.25;;;;;;;23.34;14.96;101336.50;8461923;28;20040;-75
2022/03/21 15:24:13;;;;;;;57.15;28.40;;;;;;;22.58;15.71;101341.50;8459390;28;20526;-74
2022/03/21 15:28:15;;;;;;;19.15;11.45;;;;;;;22.84;15.09;101333.88;8455467;28;20048;-74
2022/03/21 15:32:16;;;;;;;18.38;10.90;;;;;;;21.49;15.88;101339.47;8461946;28;20051;-74
2022/03/21 15:45:00;;;;;;;21.50;10.80;;;;;;;18.27;18.83;101330.88;8427859;28;20052;-74
2022/03/21 15:49:01;;;;;;;23.45;11.88;;;;;;;16.85;20.48;101333.44;8428877;28;20040;-75
2022/03/21 15:53:04;;;;;;;18.85;10.57;;;;;;;16.37;21.21;101325.38;8450423;28;20405;-74
2022/03/21 15:57:06;;;;;;;19.65;10.75;;;;;;;15.83;21.29;101330.41;8462130;28;20047;-74
2022/03/21 16:01:07;;;;;;;18.77;10.95;;;;;;;15.42;21.83;101325.38;8462325;28;20055;-75
2022/03/21 16:05:10;;;;;;;22.88;10.80;;;;;;;15.09;22.48;101326.19;8443193;28;20048;-74
2022/03/21 16:09:10;;;;;;;22.25;11.93;;;;;;;14.73;23.10;101329.19;8462095;28;20043;-74
2022/03/21 16:13:12;;;;;;;29.55;11.52;;;;;;;14.37;23.37;101322.34;8461915;28;20051;-74
2022/03/21 16:17:15;;;;;;;32.70;15.85;;;;;;;14.09;23.74;101323.00;8460982;28;20247;-74
2022/03/21 16:21:16;;;;;;;57.53;24.55;;;;;;;13.83;24.17;101323.09;8461493;28;20036;-74
2022/03/21 16:25:17;;;;;;;42.15;19.05;;;;;;;13.54;24.43;101322.06;8461283;28;20040;-74
2022/03/21 16:29:18;;;;;;;45.42;21.05;;;;;;;13.27;25.12;101325.06;8425642;28;20138;-74
2022/03/21 16:33:19;;;;;;;57.17;26.95;;;;;;;12.99;25.87;101321.00;8461486;27;20082;-74
2022/03/21 16:37:24;;;;;;;39.92;18.85;;;;;;;12.74;25.87;101323.69;8461389;28;20051;-74
2022/03/21 16:41:25;;;;;;;31.40;14.95;;;;;;;12.56;26.32;101321.50;8461035;28;20524;-73
2022/03/21 16:45:26;;;;;;;26.63;13.88;;;;;;;12.26;26.93;101317.63;8460969;28;20047;-74
2022/03/21 16:49:27;;;;;;;23.08;12.35;;;;;;;11.86;27.72;101317.44;8461042;28;20060;-74
2022/03/21 16:53:28;;;;;;;30.02;13.18;;;;;;;11.56;28.03;101306.44;8458981;28;20069;-74
2022/03/21 16:57:29;;;;;;;32.35;13.88;;;;;;;11.32;28.57;101322.22;8460561;28;20066;-75
2022/03/21 17:01:30;;;;;;;29.83;14.35;;;;;;;10.97;29.64;101320.06;8460110;28;20079;-74
2022/03/21 17:05:37;;;;;;;35.88;14.35;;;;;;;10.48;30.91;101328.25;8459365;28;20040;-74
2022/03/21 17:09:38;;;;;;;28.83;13.63;;;;;;;10.11;31.62;101327.22;8441361;28;20476;-73
2022/03/21 17:13:39;;;;;;;38.95;13.57;;;;;;;9.81;32.73;101333.06;8459992;28;20055;-74
2022/03/21 17:17:40;;;;;;;32.38;12.68;;;;;;;9.43;33.63;101320.38;8459925;28;20154;-73
2022/03/21 17:26:02;;;;;;;37.20;15.73;;;;;;;8.85;35.19;101329.72;8459663;28;20436;-74
2022/03/21 17:30:05;;;;;;;338.23;119.10;;;;;;;8.68;35.58;101328.84;8458327;28;20644;-74
2022/03/21 17:34:06;;;;;;;204.07;69.95;;;;;;;8.49;35.80;101335.50;8458837;28;20485;-73
2022/03/21 17:38:07;;;;;;;69.70;28.17;;;;;;;8.17;36.80;101331.63;8440455;28;20071;-72
2022/03/21 17:42:09;;;;;;;34.03;15.73;;;;;;;8.04;37.51;101327.31;8456125;28;20059;-73
2022/03/21 17:46:10;;;;;;;42.38;18.30;;;;;;;7.72;37.41;101324.22;8437692;28;20130;-75
2022/03/21 17:50:11;;;;;;;238.70;77.13;;;;;;;7.25;38.00;101327.97;8459437;28;20181;-73
2022/03/21 17:54:12;;;;;;;65.28;24.40;;;;;;;6.97;38.44;101342.91;8439427;28;20048;-74
2022/03/21 17:58:14;;;;;;;41.30;18.13;;;;;;;6.76;38.87;101335.38;8458743;28;20054;-73
2022/03/21 18:02:17;;;;;;;41.97;17.75;;;;;;;6.62;39.43;101326.69;8459040;28;20455;-74
2022/03/21 18:06:18;;;;;;;39.25;17.17;;;;;;;6.56;40.10;101340.19;8458636;28;20368;-74
2022/03/21 18:10:19;;;;;;;47.42;18.90;;;;;;;6.47;40.17;101341.56;8438780;28;20047;-74
2022/03/21 18:14:21;;;;;;;61.28;26.38;;;;;;;6.28;40.46;101338.94;8460729;28;20044;-74
2022/03/21 18:18:23;;;;;;;62.35;28.40;;;;;;;6.19;40.86;101337.56;8465127;28;20047;-73
2022/03/21 18:22:24;;;;;;;55.88;25.60;;;;;;;6.05;41.16;101344.16;8464771;28;20409;-73
2022/03/21 18:26:24;;;;;;;55.80;24.80;;;;;;;5.92;41.08;101339.75;8444949;28;20058;-73
2022/03/21 18:30:25;;;;;;;60.30;25.05;;;;;;;5.81;41.14;101347.72;8464884;28;20072;-74
2022/03/21 18:34:28;;;;;;;53.33;22.50;;;;;;;5.61;41.43;101341.72;8464566;28;20052;-74
2022/03/21 18:38:29;;;;;;;59.30;21.88;;;;;;;5.50;41.56;101340.59;8443597;28;20540;-74
2022/03/21 18:42:30;;;;;;;47.03;20.70;;;;;;;5.34;42.02;101347.31;8463880;28;20096;-73
2022/03/21 18:46:32;;;;;;;48.67;20.92;;;;;;;5.23;42.59;101355.28;8464072;28;20043;-73
2022/03/21 18:50:32;;;;;;;59.20;25.25;;;;;;;5.15;42.74;101353.69;8464783;28;20543;-73
2022/03/21 18:54:34;;;;;;;53.17;22.67;;;;;;;5.08;43.45;101352.91;8445028;28;20134;-72
2022/03/21 18:58:35;;;;;;;66.45;27.45;;;;;;;4.90;43.66;101355.53;8464115;28;20402;-73
2022/03/21 19:02:36;;;;;;;72.03;30.33;;;;;;;4.89;43.52;101359.22;8463948;28;20505;-73
2022/03/21 19:06:37;;;;;;;60.60;27.88;;;;;;;4.88;43.53;101352.22;8464174;28;20044;-73
2022/03/21 19:10:38;;;;;;;53.55;21.90;;;;;;;4.94;43.53;101356.72;8463730;28;20134;-73
2022/03/21 19:14:39;;;;;;;42.47;18.30;;;;;;;4.95;43.00;101364.53;8464239;28;20451;-73